Time;durP1;ratioP1;P1;durP2;ratioP2;P2;SDS_P1;SDS_P2;PMS_P1;PMS_P2;Temp;Humidity;BMP_temperature;BMP_pressure;BME280_temperature;BME280_humidity;BME280_pressure;Samples;Min_cycle;Max_cycle;Signal;HPM_P1;HPM_P2
2023/09/08 00:00:56;;;;;;;14.88;13.48;;;;;;;;;;5003283;28;20036;-74
2023/09/08 00:03:22;;;;;;;15.85;14.38;;;;;;;;;;5002457;28;20126;-73
2023/09/08 00:05:47;;;;;;;15.68;13.35;;;;;;;;;;5005032;28;20124;-73
2023/09/08 00:08:13;;;;;;;15.38;13.80;;;;;;;;;;5002163;28;20035;-73
2023/09/08 00:10:39;;;;;;;15.02;13.55;;;;;;;;;;5005151;28;20041;-73
2023/09/08 00:13:04;;;;;;;15.05;13.65;;;;;;;;;;5004694;28;20124;-73
2023/09/08 00:15:30;;;;;;;16.23;14.55;;;;;;;;;;4999144;28;20041;-74
2023/09/08 00:17:57;;;;;;;15.18;13.88;;;;;;;;;;5004392;28;20701;-74
2023/09/08 00:20:23;;;;;;;16.33;13.88;;;;;;;;;;5001407;28;20053;-73
2023/09/08 00:22:48;;;;;;;19.65;14.55;;;;;;;;;;4997232;28;20088;-74
2023/09/08 00:25:14;;;;;;;18.30;14.48;;;;;;;;;;5004774;28;20041;-73
2023/09/08 00:27:39;;;;;;;15.52;14.20;;;;;;;;;;5018420;28;20188;-75
2023/09/08 00:30:06;;;;;;;15.65;14.07;;;;;;;;;;5005087;28;20581;-74
2023/09/08 00:32:32;;;;;;;14.93;13.45;;;;;;;;;;5003090;28;20141;-74
2023/09/08 00:34:59;;;;;;;16.25;14.35;;;;;;;;;;5000227;28;20034;-74
2023/09/08 00:37:25;;;;;;;17.08;15.32;;;;;;;;;;5003198;28;20610;-73
2023/09/08 00:39:50;;;;;;;16.10;14.60;;;;;;;;;;5004137;28;20041;-73
2023/09/08 00:42:16;;;;;;;16.33;14.57;;;;;;;;;;5003366;28;20037;-74
2023/09/08 00:44:41;;;;;;;16.67;14.70;;;;;;;;;;4999258;28;20103;-74
2023/09/08 00:47:07;;;;;;;16.67;15.07;;;;;;;;;;5005377;28;20584;-73
2023/09/08 00:49:32;;;;;;;17.63;15.30;;;;;;;;;;5004027;28;20033;-74
2023/09/08 00:51:58;;;;;;;16.25;14.68;;;;;;;;;;5005255;28;20160;-74
2023/09/08 00:54:24;;;;;;;16.30;14.80;;;;;;;;;;5004370;28;20033;-73
2023/09/08 00:56:57;;;;;;;16.95;15.18;;;;;;;;;;5005630;28;20033;-73
2023/09/08 00:59:23;;;;;;;15.85;14.38;;;;;;;;;;5003696;28;20045;-73
2023/09/08 01:01:48;;;;;;;16.35;14.55;;;;;;;;;;5004923;28;20042;-73
2023/09/08 01:04:14;;;;;;;17.00;15.23;;;;;;;;;;5002951;28;20472;-73
2023/09/08 01:06:40;;;;;;;16.42;14.63;;;;;;;;;;5021466;28;20033;-74
2023/09/08 01:09:06;;;;;;;16.92;15.23;;;;;;;;;;5004252;28;20036;-73
2023/09/08 01:11:32;;;;;;;15.48;13.90;;;;;;;;;;5016176;28;20041;-74
2023/09/08 01:13:57;;;;;;;16.13;14.50;;;;;;;;;;4999835;28;20081;-73
2023/09/08 01:16:23;;;;;;;17.50;14.40;;;;;;;;;;5000615;28;20112;-74
2023/09/08 01:18:49;;;;;;;17.42;15.43;;;;;;;;;;5004019;28;20034;-73
2023/09/08 01:21:41;;;;;;;16.35;14.52;;;;;;;;;;5004351;28;20115;-73
2023/09/08 01:24:45;;;;;;;16.10;14.32;;;;;;;;;;4979909;28;20073;-73
2023/09/08 01:27:14;;;;;;;17.95;14.57;;;;;;;;;;5002366;28;20034;-73
2023/09/08 01:29:41;;;;;;;18.05;15.23;;;;;;;;;;5004503;28;20036;-73
2023/09/08 01:32:08;;;;;;;17.20;15.50;;;;;;;;;;5003977;28;20038;-74
2023/09/08 01:34:36;;;;;;;16.52;14.60;;;;;;;;;;4996711;28;20125;-74
2023/09/08 01:37:04;;;;;;;16.20;14.77;;;;;;;;;;5016229;28;20061;-74
2023/09/08 01:39:30;;;;;;;15.95;14.45;;;;;;;;;;4999108;28;20069;-74
2023/09/08 01:41:55;;;;;;;17.85;14.50;;;;;;;;;;5019116;28;20057;-74
2023/09/08 01:44:21;;;;;;;15.30;13.80;;;;;;;;;;5000522;28;20065;-74
2023/09/08 01:46:46;;;;;;;16.88;14.98;;;;;;;;;;5004416;28;20118;-74
2023/09/08 01:49:12;;;;;;;16.08;14.57;;;;;;;;;;5003328;28;20037;-74
2023/09/08 01:51:37;;;;;;;17.40;15.60;;;;;;;;;;5014022;28;20038;-74
2023/09/08 01:54:03;;;;;;;17.17;15.30;;;;;;;;;;5018290;28;20034;-74
2023/09/08 01:56:29;;;;;;;17.77;15.35;;;;;;;;;;5000172;28;20037;-73
2023/09/08 01:58:55;;;;;;;17.65;15.75;;;;;;;;;;4986384;28;20124;-73
2023/09/08 02:01:21;;;;;;;18.00;15.02;;;;;;;;;;4998172;28;20436;-73
2023/09/08 02:03:46;;;;;;;16.55;14.82;;;;;;;;;;4999383;28;20038;-73
2023/09/08 02:06:12;;;;;;;18.20;15.07;;;;;;;;;;5003347;28;20442;-74
2023/09/08 02:08:37;;;;;;;19.95;15.18;;;;;;;;;;5002953;28;20548;-73
2023/09/08 02:11:06;;;;;;;18.65;15.77;;;;;;;;;;4986647;28;20072;-73
2023/09/08 02:13:31;;;;;;;17.00;15.38;;;;;;;;;;5021340;28;20062;-74
2023/09/08 02:15:57;;;;;;;17.33;15.52;;;;;;;;;;4999713;28;20113;-74
2023/09/08 02:18:24;;;;;;;18.13;16.25;;;;;;;;;;5000519;28;20033;-73
2023/09/08 02:20:50;;;;;;;20.98;15.80;;;;;;;;;;5018197;28;20088;-74
2023/09/08 02:23:15;;;;;;;16.63;15.07;;;;;;;;;;5018293;28;20042;-73
2023/09/08 02:25:41;;;;;;;17.00;15.30;;;;;;;;;;5006001;28;20042;-73
2023/09/08 02:28:06;;;;;;;17.75;15.95;;;;;;;;;;5002642;28;20053;-73
2023/09/08 02:30:32;;;;;;;18.20;16.20;;;;;;;;;;4992382;28;20060;-74
2023/09/08 02:32:59;;;;;;;19.35;16.92;;;;;;;;;;5016586;28;20674;-74
2023/09/08 02:35:25;;;;;;;18.35;16.38;;;;;;;;;;5024244;28;20030;-74
2023/09/08 02:37:52;;;;;;;17.20;15.40;;;;;;;;;;5004713;28;20033;-73
2023/09/08 02:40:20;;;;;;;17.45;15.50;;;;;;;;;;5016497;28;20401;-73
2023/09/08 02:42:46;;;;;;;17.52;15.68;;;;;;;;;;5022247;28;20046;-74
2023/09/08 02:45:11;;;;;;;18.13;16.23;;;;;;;;;;5005288;28;20103;-73
2023/09/08 02:47:37;;;;;;;17.60;15.77;;;;;;;;;;5002078;28;20432;-73
2023/09/08 02:50:04;;;;;;;17.75;15.85;;;;;;;;;;4990322;28;20076;-74
2023/09/08 02:52:32;;;;;;;17.55;15.45;;;;;;;;;;5003546;28;20076;-74
2023/09/08 02:54:57;;;;;;;17.00;15.38;;;;;;;;;;5004759;28;20069;-74
2023/09/08 02:57:24;;;;;;;17.50;15.73;;;;;;;;;;5000187;28;20485;-73
2023/09/08 02:59:56;;;;;;;18.67;16.80;;;;;;;;;;5018955;28;20045;-74
2023/09/08 03:02:22;;;;;;;19.15;17.17;;;;;;;;;;5017622;28;20070;-73
2023/09/08 03:04:48;;;;;;;18.15;16.25;;;;;;;;;;5005301;28;20109;-73
2023/09/08 03:07:13;;;;;;;17.83;15.88;;;;;;;;;;5006054;28;20113;-73
2023/09/08 03:09:39;;;;;;;18.67;16.17;;;;;;;;;;5005646;28;20038;-74
2023/09/08 03:12:04;;;;;;;17.85;15.65;;;;;;;;;;5006898;28;20511;-73
2023/09/08 03:14:30;;;;;;;17.98;15.95;;;;;;;;;;5003023;28;20084;-74
2023/09/08 03:16:55;;;;;;;17.60;15.55;;;;;;;;;;5004119;28;20037;-73
2023/09/08 03:19:21;;;;;;;17.48;15.75;;;;;;;;;;5004295;28;20057;-74
2023/09/08 03:21:46;;;;;;;17.00;15.20;;;;;;;;;;5007488;28;20107;-73
2023/09/08 03:24:12;;;;;;;17.55;15.88;;;;;;;;;;5002763;28;20034;-74
2023/09/08 03:26:40;;;;;;;18.08;15.93;;;;;;;;;;5021611;28;20038;-74
2023/09/08 03:29:06;;;;;;;17.98;16.20;;;;;;;;;;5004648;28;20104;-68
2023/09/08 03:31:31;;;;;;;19.73;16.20;;;;;;;;;;5014554;28;20038;-69
2023/09/08 03:33:57;;;;;;;18.92;16.92;;;;;;;;;;5019662;28;20038;-68
2023/09/08 03:36:24;;;;;;;21.30;16.10;;;;;;;;;;5013681;28;20038;-69
2023/09/08 03:38:50;;;;;;;17.38;15.75;;;;;;;;;;4999227;28;20062;-69
2023/09/08 03:41:15;;;;;;;21.58;16.10;;;;;;;;;;4999372;28;20069;-69
2023/09/08 03:43:41;;;;;;;20.63;18.42;;;;;;;;;;5015512;28;20461;-69
2023/09/08 03:46:06;;;;;;;18.02;16.17;;;;;;;;;;4994615;28;20038;-69
2023/09/08 03:48:32;;;;;;;18.75;16.95;;;;;;;;;;5000450;28;20046;-68
2023/09/08 03:50:58;;;;;;;20.40;16.88;;;;;;;;;;4996975;28;20549;-69
2023/09/08 03:53:24;;;;;;;19.83;17.75;;;;;;;;;;4996526;28;20042;-69
2023/09/08 03:55:50;;;;;;;19.70;17.65;;;;;;;;;;4992805;28;20038;-69
2023/09/08 03:58:15;;;;;;;20.02;17.23;;;;;;;;;;4998436;28;20675;-68
2023/09/08 04:00:41;;;;;;;23.00;19.10;;;;;;;;;;5001245;28;20085;-69
2023/09/08 04:03:08;;;;;;;19.77;17.67;;;;;;;;;;5014427;28;20034;-69
2023/09/08 04:05:34;;;;;;;23.35;18.23;;;;;;;;;;4980669;28;20037;-68
2023/09/08 04:07:59;;;;;;;21.17;18.85;;;;;;;;;;4996683;28;20045;-68
2023/09/08 04:10:26;;;;;;;25.13;18.48;;;;;;;;;;5010550;28;20105;-68
2023/09/08 04:12:51;;;;;;;21.33;19.13;;;;;;;;;;5001064;28;20140;-68
2023/09/08 04:15:17;;;;;;;23.52;17.77;;;;;;;;;;4999860;28;20045;-68
2023/09/08 04:17:42;;;;;;;19.45;17.45;;;;;;;;;;5001839;28;20033;-69
2023/09/08 04:20:09;;;;;;;24.17;17.13;;;;;;;;;;4996801;28;20411;-68
2023/09/08 04:22:34;;;;;;;24.48;18.77;;;;;;;;;;5002080;28;20041;-68
2023/09/08 04:25:01;;;;;;;20.88;17.70;;;;;;;;;;5016224;28;20038;-68
2023/09/08 04:27:29;;;;;;;19.98;17.55;;;;;;;;;;4998263;28;20038;-69
2023/09/08 04:29:55;;;;;;;24.80;18.40;;;;;;;;;;4998820;28;20044;-68
2023/09/08 04:32:20;;;;;;;20.08;17.95;;;;;;;;;;4997367;28;20037;-69
2023/09/08 04:34:46;;;;;;;20.98;17.67;;;;;;;;;;5000348;28;20197;-68
2023/09/08 04:37:12;;;;;;;19.52;17.48;;;;;;;;;;5017303;28;20493;-68
2023/09/08 04:39:37;;;;;;;19.48;17.10;;;;;;;;;;4997762;28;20057;-68
2023/09/08 04:42:03;;;;;;;19.45;17.35;;;;;;;;;;4999598;28;20528;-69
2023/09/08 04:44:29;;;;;;;23.17;17.90;;;;;;;;;;5000410;28;20026;-69
2023/09/08 04:46:55;;;;;;;20.58;18.38;;;;;;;;;;4993928;28;20092;-68
2023/09/08 04:49:21;;;;;;;18.08;16.27;;;;;;;;;;4999394;28;20049;-69
2023/09/08 04:51:46;;;;;;;19.90;17.73;;;;;;;;;;5003078;28;20033;-69
2023/09/08 04:54:15;;;;;;;18.83;16.93;;;;;;;;;;5020558;28;20042;-68
2023/09/08 04:56:41;;;;;;;19.83;17.80;;;;;;;;;;5001631;28;20052;-69
2023/09/08 04:59:07;;;;;;;18.38;16.38;;;;;;;;;;5012859;28;20069;-69
2023/09/08 05:01:36;;;;;;;21.17;17.08;;;;;;;;;;4997958;28;20564;-68
2023/09/08 05:04:02;;;;;;;;;;;;;;;;;;5019808;28;20034;-69
2023/09/08 05:06:28;;;;;;;19.25;16.85;;;;;;;;;;5001052;28;19917;-69
2023/09/08 05:08:54;;;;;;;23.95;16.08;;;;;;;;;;5000282;28;20474;-68
2023/09/08 05:11:22;;;;;;;17.98;16.08;;;;;;;;;;5001343;28;20060;-69
2023/09/08 05:13:48;;;;;;;28.38;18.13;;;;;;;;;;5002041;28;20065;-68
2023/09/08 05:16:14;;;;;;;21.08;16.30;;;;;;;;;;4997549;28;20129;-69
2023/09/08 05:18:48;;;;;;;18.05;16.23;;;;;;;;;;4996694;28;20987;-69
2023/09/08 05:21:14;;;;;;;16.35;14.25;;;;;;;;;;5001897;28;20041;-69
2023/09/08 05:23:40;;;;;;;17.48;15.77;;;;;;;;;;5019668;28;20037;-69
2023/09/08 05:26:06;;;;;;;19.95;17.67;;;;;;;;;;5014977;28;20033;-69
2023/09/08 05:28:32;;;;;;;17.83;16.02;;;;;;;;;;5011517;28;20127;-69
2023/09/08 05:30:58;;;;;;;18.52;16.63;;;;;;;;;;5001853;28;20061;-69
2023/09/08 05:33:24;;;;;;;17.42;15.63;;;;;;;;;;5000620;28;20041;-69
2023/09/08 05:35:49;;;;;;;20.80;16.30;;;;;;;;;;5014085;28;20034;-69
2023/09/08 05:38:16;;;;;;;18.63;16.38;;;;;;;;;;5005594;28;20803;-69
2023/09/08 05:40:41;;;;;;;20.95;17.20;;;;;;;;;;5004814;28;20073;-69
2023/09/08 05:43:07;;;;;;;20.13;18.13;;;;;;;;;;4999162;28;20060;-69
2023/09/08 05:45:33;;;;;;;19.45;17.38;;;;;;;;;;5012384;28;20037;-68
2023/09/08 05:47:59;;;;;;;18.38;16.63;;;;;;;;;;5017929;28;20065;-71
2023/09/08 05:50:26;;;;;;;17.00;14.90;;;;;;;;;;5016694;28;20789;-68
2023/09/08 05:52:52;;;;;;;18.58;16.20;;;;;;;;;;5014032;28;20045;-68
2023/09/08 05:55:18;;;;;;;20.25;16.65;;;;;;;;;;5001407;28;20038;-68
2023/09/08 05:57:43;;;;;;;17.45;15.75;;;;;;;;;;5013348;28;20038;-68
2023/09/08 06:00:10;;;;;;;28.20;16.08;;;;;;;;;;5002660;28;20565;-68
2023/09/08 06:02:46;;;;;;;18.98;17.10;;;;;;;;;;4982472;28;20911;-68
2023/09/08 06:05:13;;;;;;;17.95;16.15;;;;;;;;;;5005069;28;20521;-68
2023/09/08 06:07:39;;;;;;;18.10;16.30;;;;;;;;;;4989344;28;20121;-73
2023/09/08 06:10:08;;;;;;;16.70;15.20;;;;;;;;;;5000827;28;20041;-73
2023/09/08 06:12:33;;;;;;;15.15;13.57;;;;;;;;;;5009670;28;20037;-75
2023/09/08 06:14:59;;;;;;;18.30;16.50;;;;;;;;;;4999604;28;20100;-73
2023/09/08 06:17:25;;;;;;;16.55;14.88;;;;;;;;;;5007696;28;20064;-73
2023/09/08 06:19:52;;;;;;;17.45;14.70;;;;;;;;;;5015386;28;20134;-73
2023/09/08 06:22:18;;;;;;;16.52;14.80;;;;;;;;;;4999759;28;20038;-72
2023/09/08 06:24:43;;;;;;;15.05;13.65;;;;;;;;;;5021380;28;20112;-72
2023/09/08 06:27:11;;;;;;;16.13;14.73;;;;;;;;;;5015267;28;20121;-73
2023/09/08 06:29:38;;;;;;;15.77;14.27;;;;;;;;;;5012099;28;20042;-74
2023/09/08 06:32:04;;;;;;;16.88;15.10;;;;;;;;;;5006153;28;20655;-73
2023/09/08 06:34:29;;;;;;;15.57;13.98;;;;;;;;;;5005276;28;20115;-73
2023/09/08 06:36:55;;;;;;;15.18;13.68;;;;;;;;;;5002323;28;20113;-75
2023/09/08 06:39:21;;;;;;;16.85;15.05;;;;;;;;;;5000809;28;20037;-74
2023/09/08 06:41:47;;;;;;;15.40;13.90;;;;;;;;;;4978518;28;20045;-74
2023/09/08 06:44:15;;;;;;;15.75;14.15;;;;;;;;;;4991175;28;20085;-73
2023/09/08 06:46:41;;;;;;;15.23;13.63;;;;;;;;;;5007568;28;20153;-73
2023/09/08 06:49:06;;;;;;;17.92;14.98;;;;;;;;;;4994893;28;20620;-73
2023/09/08 06:51:32;;;;;;;16.00;14.27;;;;;;;;;;5015171;28;20124;-72
2023/09/08 06:53:59;;;;;;;16.17;14.68;;;;;;;;;;4998646;28;20038;-73
2023/09/08 06:56:30;;;;;;;14.05;12.77;;;;;;;;;;5003129;28;20045;-75
2023/09/08 06:59:00;;;;;;;13.68;12.25;;;;;;;;;;5003500;28;20044;-75
2023/09/08 07:01:26;;;;;;;14.98;13.52;;;;;;;;;;4998200;28;20041;-74
2023/09/08 07:03:51;;;;;;;14.55;13.35;;;;;;;;;;5000266;28;20034;-74
2023/09/08 07:06:17;;;;;;;13.45;12.25;;;;;;;;;;4994678;28;20033;-74
2023/09/08 07:08:43;;;;;;;13.40;12.05;;;;;;;;;;5017841;28;20406;-74
2023/09/08 07:11:09;;;;;;;14.98;12.93;;;;;;;;;;4998541;28;20837;-75
2023/09/08 07:13:36;;;;;;;13.73;12.55;;;;;;;;;;5007238;28;20041;-74
2023/09/08 07:16:02;;;;;;;14.30;13.00;;;;;;;;;;5004260;28;20033;-74
2023/09/08 07:18:28;;;;;;;13.60;12.50;;;;;;;;;;5000413;28;20042;-74
2023/09/08 07:20:54;;;;;;;14.52;13.20;;;;;;;;;;5015195;28;20524;-75
2023/09/08 07:23:20;;;;;;;14.27;12.85;;;;;;;;;;4996227;28;20755;-75
2023/09/08 07:25:50;;;;;;;13.35;12.07;;;;;;;;;;5012090;28;20599;-75
2023/09/08 07:28:18;;;;;;;13.45;12.25;;;;;;;;;;5010490;28;20497;-74
2023/09/08 07:30:43;;;;;;;15.25;12.63;;;;;;;;;;5014154;28;20049;-74
2023/09/08 07:33:10;;;;;;;13.88;12.57;;;;;;;;;;4996753;28;20510;-74
2023/09/08 07:35:37;;;;;;;13.05;11.60;;;;;;;;;;5019782;28;20034;-74
2023/09/08 07:38:03;;;;;;;13.90;12.38;;;;;;;;;;4995812;28;20034;-74
2023/09/08 07:40:28;;;;;;;16.50;11.52;;;;;;;;;;4991310;28;20036;-74
2023/09/08 07:42:54;;;;;;;14.07;11.57;;;;;;;;;;4994283;28;20042;-73
2023/09/08 07:45:19;;;;;;;14.77;11.45;;;;;;;;;;4999801;28;20060;-73
2023/09/08 07:47:45;;;;;;;12.20;11.07;;;;;;;;;;5002929;28;20051;-74
2023/09/08 07:50:19;;;;;;;12.18;11.00;;;;;;;;;;4995766;28;20041;-75
2023/09/08 07:52:45;;;;;;;15.60;12.48;;;;;;;;;;4997802;28;20038;-74
2023/09/08 07:55:11;;;;;;;12.95;11.65;;;;;;;;;;4997927;28;20069;-74
2023/09/08 07:57:37;;;;;;;12.57;11.17;;;;;;;;;;4939452;28;1606782;-74
2023/09/08 08:00:03;;;;;;;12.55;11.45;;;;;;;;;;5020510;28;20064;-74
2023/09/08 08:03:07;;;;;;;15.93;11.40;;;;;;;;;;4995760;28;20046;-74
2023/09/08 08:05:32;;;;;;;12.35;10.80;;;;;;;;;;4957048;28;20047;-74
2023/09/08 08:07:58;;;;;;;13.95;11.73;;;;;;;;;;4963890;28;20047;-75
2023/09/08 08:10:24;;;;;;;13.75;11.25;;;;;;;;;;4961824;28;20058;-74
2023/09/08 08:12:49;;;;;;;13.82;11.15;;;;;;;;;;4960253;28;20122;-74
2023/09/08 08:15:15;;;;;;;14.43;11.02;;;;;;;;;;4957452;28;20053;-75
2023/09/08 08:17:41;;;;;;;11.77;10.77;;;;;;;;;;4955654;28;20730;-74
2023/09/08 08:20:09;;;;;;;13.05;10.30;;;;;;;;;;4957364;28;20825;-74
2023/09/08 08:22:36;;;;;;;12.88;10.75;;;;;;;;;;4955602;28;20054;-75
2023/09/08 08:25:01;;;;;;;11.85;10.48;;;;;;;;;;4957128;28;20039;-75
2023/09/08 08:27:30;;;;;;;13.27;10.40;;;;;;;;;;4961589;28;20042;-74
2023/09/08 08:30:00;;;;;;;11.70;10.50;;;;;;;;;;4962255;28;20046;-74
2023/09/08 08:32:29;;;;;;;11.93;10.73;;;;;;;;;;4938029;28;20097;-75
2023/09/08 08:34:55;;;;;;;10.82;9.93;;;;;;;;;;4958262;28;20055;-75
2023/09/08 08:37:21;;;;;;;12.68;11.57;;;;;;;;;;4955305;28;20058;-75
2023/09/08 08:39:47;;;;;;;10.98;9.93;;;;;;;;;;4934481;28;20066;-74
2023/09/08 08:42:13;;;;;;;14.52;10.68;;;;;;;;;;4981594;28;20045;-74
2023/09/08 08:44:39;;;;;;;14.70;10.35;;;;;;;;;;4998745;28;20040;-74
2023/09/08 08:47:10;;;;;;;13.23;10.82;;;;;;;;;;5002148;28;20042;-75
2023/09/08 08:49:36;;;;;;;11.43;10.35;;;;;;;;;;4996297;28;20036;-74
2023/09/08 08:52:06;;;;;;;13.23;10.13;;;;;;;;;;5001673;28;20039;-74
2023/09/08 08:54:38;;;;;;;11.07;10.07;;;;;;;;;;4979001;28;20125;-74
2023/09/08 08:57:04;;;;;;;10.75;9.77;;;;;;;;;;4998369;28;20049;-74
2023/09/08 08:59:31;;;;;;;11.50;10.30;;;;;;;;;;4999425;28;20052;-74
2023/09/08 09:01:58;;;;;;;10.80;9.77;;;;;;;;;;5001080;28;20041;-74
2023/09/08 09:04:25;;;;;;;10.63;9.57;;;;;;;;;;4998004;28;20401;-74
2023/09/08 09:06:52;;;;;;;10.63;9.27;;;;;;;;;;4995048;28;20049;-75
2023/09/08 09:09:18;;;;;;;10.48;9.30;;;;;;;;;;5000766;28;20026;-75
2023/09/08 09:11:44;;;;;;;10.93;9.77;;;;;;;;;;5012784;28;20130;-74
2023/09/08 09:14:09;;;;;;;12.15;10.35;;;;;;;;;;5000877;28;20451;-75
2023/09/08 09:16:43;;;;;;;11.30;10.13;;;;;;;;;;4999242;28;20172;-74
2023/09/08 09:19:09;;;;;;;11.63;9.57;;;;;;;;;;5014912;28;20124;-75
2023/09/08 09:21:43;;;;;;;10.07;9.13;;;;;;;;;;4999235;28;20044;-74
2023/09/08 09:24:14;;;;;;;11.23;9.27;;;;;;;;;;4997044;28;20065;-75
2023/09/08 09:26:39;;;;;;;10.55;9.48;;;;;;;;;;4996958;28;20123;-75
2023/09/08 09:29:14;;;;;;;12.05;9.82;;;;;;;;;;4999241;28;20037;-75
2023/09/08 09:31:56;;;;;;;10.90;9.40;;;;;;;;;;4998125;28;20486;-75
2023/09/08 09:34:22;;;;;;;13.40;9.13;;;;;;;;;;4991166;28;20052;-75
2023/09/08 09:36:51;;;;;;;10.02;9.02;;;;;;;;;;4998566;28;20048;-75
2023/09/08 09:39:21;;;;;;;10.05;8.90;;;;;;;;;;4993340;28;20954;-75
2023/09/08 09:41:48;;;;;;;9.75;8.95;;;;;;;;;;4999619;28;20041;-74
2023/09/08 09:44:15;;;;;;;10.25;9.18;;;;;;;;;;4998728;28;20540;-75
2023/09/08 09:46:47;;;;;;;9.88;9.15;;;;;;;;;;4997872;28;20041;-74
2023/09/08 09:49:14;;;;;;;10.80;9.38;;;;;;;;;;4994700;28;20033;-73
2023/09/08 09:51:44;;;;;;;10.30;9.38;;;;;;;;;;4996043;28;20072;-74
2023/09/08 09:54:11;;;;;;;10.50;9.02;;;;;;;;;;5010585;28;20042;-74
2023/09/08 09:56:39;;;;;;;10.45;9.43;;;;;;;;;;4991101;28;20069;-74
2023/09/08 09:59:07;;;;;;;9.98;8.80;;;;;;;;;;4996430;28;20045;-75
2023/09/08 10:01:33;;;;;;;10.02;9.02;;;;;;;;;;5000888;28;20048;-76
2023/09/08 10:04:00;;;;;;;10.10;9.10;;;;;;;;;;4995400;28;20037;-76
2023/09/08 10:06:26;;;;;;;9.45;8.40;;;;;;;;;;4995423;28;20030;-75
2023/09/08 10:08:54;;;;;;;9.75;8.80;;;;;;;;;;4998019;28;20038;-74
2023/09/08 10:11:21;;;;;;;9.95;9.15;;;;;;;;;;4994018;28;20827;-74
2023/09/08 10:13:51;;;;;;;14.27;8.90;;;;;;;;;;5015201;28;20039;-75
2023/09/08 10:16:20;;;;;;;12.25;9.82;;;;;;;;;;4995871;28;20366;-76
2023/09/08 10:18:49;;;;;;;10.38;9.48;;;;;;;;;;5004687;28;20097;-75
2023/09/08 10:21:16;;;;;;;10.85;8.68;;;;;;;;;;4997241;28;20037;-76
2023/09/08 10:23:50;;;;;;;9.57;8.80;;;;;;;;;;5000900;28;20044;-74
2023/09/08 10:26:17;;;;;;;10.10;9.10;;;;;;;;;;4999660;28;20038;-74
2023/09/08 10:28:44;;;;;;;9.75;8.82;;;;;;;;;;4993504;28;20030;-75
2023/09/08 10:31:10;;;;;;;8.85;8.15;;;;;;;;;;4998254;28;20037;-75
2023/09/08 10:33:36;;;;;;;9.30;8.40;;;;;;;;;;5002123;28;20702;-76
2023/09/08 10:36:05;;;;;;;9.35;8.63;;;;;;;;;;5002183;28;20054;-76
2023/09/08 10:38:34;;;;;;;11.13;8.57;;;;;;;;;;4996572;28;20168;-75
2023/09/08 10:41:15;;;;;;;9.05;8.00;;;;;;;;;;4996727;28;20037;-75
2023/09/08 10:43:56;;;;;;;8.90;8.20;;;;;;;;;;4994083;28;20558;-77
2023/09/08 10:46:30;;;;;;;9.15;8.35;;;;;;;;;;4996538;28;20101;-76
2023/09/08 10:49:04;;;;;;;9.35;8.60;;;;;;;;;;5007268;28;20044;-76
2023/09/08 10:51:30;;;;;;;8.35;7.68;;;;;;;;;;5002900;28;20489;-76
2023/09/08 10:53:56;;;;;;;9.43;8.50;;;;;;;;;;5004402;28;20045;-76
2023/09/08 10:56:27;;;;;;;9.50;8.70;;;;;;;;;;5004939;28;20037;-76
2023/09/08 10:58:54;;;;;;;9.95;9.15;;;;;;;;;;5007265;28;20033;-76
2023/09/08 11:01:27;;;;;;;8.93;8.15;;;;;;;;;;5004698;28;20042;-77
2023/09/08 11:03:53;;;;;;;9.55;8.60;;;;;;;;;;5002279;28;20040;-76
2023/09/08 11:06:23;;;;;;;9.13;8.30;;;;;;;;;;5009720;28;20057;-76
2023/09/08 11:08:52;;;;;;;9.18;8.48;;;;;;;;;;5007584;28;20045;-76
2023/09/08 11:11:19;;;;;;;9.35;8.65;;;;;;;;;;5001268;28;20034;-76
2023/09/08 11:13:47;;;;;;;9.98;9.00;;;;;;;;;;5002386;28;20480;-76
2023/09/08 11:16:14;;;;;;;10.38;9.30;;;;;;;;;;5003325;28;20038;-77
2023/09/08 11:18:42;;;;;;;10.07;9.17;;;;;;;;;;5004977;28;20034;-76
2023/09/08 11:21:09;;;;;;;9.82;9.13;;;;;;;;;;5000446;28;20033;-77
2023/09/08 11:23:36;;;;;;;9.88;8.90;;;;;;;;;;5004945;28;20032;-76
2023/09/08 11:26:01;;;;;;;10.70;9.60;;;;;;;;;;5001105;28;20042;-77
2023/09/08 11:28:28;;;;;;;9.93;8.95;;;;;;;;;;4995685;28;20642;-77
2023/09/08 11:30:55;;;;;;;9.93;9.15;;;;;;;;;;5006144;28;20033;-76
2023/09/08 11:33:25;;;;;;;10.55;9.13;;;;;;;;;;4989203;28;20045;-76
2023/09/08 11:35:52;;;;;;;9.95;8.95;;;;;;;;;;5005022;28;20497;-76
2023/09/08 11:38:24;;;;;;;10.15;9.20;;;;;;;;;;5004664;28;20040;-76
2023/09/08 11:40:49;;;;;;;10.30;9.30;;;;;;;;;;5002758;28;20136;-77
2023/09/08 11:43:15;;;;;;;9.85;9.05;;;;;;;;;;4997459;28;20129;-76
2023/09/08 11:45:42;;;;;;;11.05;9.70;;;;;;;;;;4998245;28;20034;-76
2023/09/08 11:48:10;;;;;;;10.30;9.50;;;;;;;;;;5003391;28;20033;-77
2023/09/08 11:50:36;;;;;;;10.93;10.10;;;;;;;;;;5001187;28;20068;-76
2023/09/08 11:53:02;;;;;;;11.00;10.05;;;;;;;;;;4997841;28;20135;-78
2023/09/08 11:55:28;;;;;;;10.90;10.02;;;;;;;;;;5002420;28;20521;-75
2023/09/08 11:57:57;;;;;;;11.00;10.10;;;;;;;;;;5001993;28;20044;-75
2023/09/08 12:00:24;;;;;;;11.20;10.23;;;;;;;;;;5001869;28;20092;-78
2023/09/08 12:02:50;;;;;;;11.27;10.27;;;;;;;;;;5001694;28;20030;-76
2023/09/08 12:05:27;;;;;;;11.80;10.60;;;;;;;;;;5002938;28;20782;-76
2023/09/08 12:07:54;;;;;;;13.10;10.98;;;;;;;;;;5004731;28;20505;-77
2023/09/08 12:10:21;;;;;;;11.50;10.60;;;;;;;;;;4998561;28;20061;-76
2023/09/08 12:12:55;;;;;;;12.52;11.40;;;;;;;;;;5002502;28;20041;-76
2023/09/08 12:15:33;;;;;;;11.43;10.55;;;;;;;;;;4999379;28;20046;-76
2023/09/08 12:18:03;;;;;;;11.80;10.60;;;;;;;;;;5001936;28;20095;-76
2023/09/08 12:20:29;;;;;;;11.30;10.40;;;;;;;;;;5001104;28;20087;-76
2023/09/08 12:23:01;;;;;;;11.57;10.38;;;;;;;;;;4998143;28;20062;-76
2023/09/08 12:25:28;;;;;;;10.82;9.98;;;;;;;;;;5018334;28;20061;-76
2023/09/08 12:27:54;;;;;;;11.90;10.80;;;;;;;;;;5000500;28;20469;-75
2023/09/08 12:30:24;;;;;;;11.73;10.70;;;;;;;;;;4999684;28;20026;-77
2023/09/08 12:32:50;;;;;;;11.95;10.82;;;;;;;;;;4999929;28;21990;-76
2023/09/08 12:35:23;;;;;;;11.82;10.93;;;;;;;;;;5001159;28;20099;-78
2023/09/08 12:38:03;;;;;;;11.52;10.45;;;;;;;;;;4985543;28;20146;-78
2023/09/08 12:40:32;;;;;;;11.45;10.55;;;;;;;;;;5002452;28;20033;-77
2023/09/08 12:42:58;;;;;;;11.25;10.25;;;;;;;;;;5000488;28;20684;-76
2023/09/08 12:45:26;;;;;;;11.45;10.55;;;;;;;;;;5000231;28;20148;-76
2023/09/08 12:47:54;;;;;;;11.27;10.38;;;;;;;;;;4999945;28;20061;-76
2023/09/08 12:50:20;;;;;;;11.45;10.50;;;;;;;;;;5003709;28;20635;-76
2023/09/08 12:52:46;;;;;;;10.98;10.00;;;;;;;;;;5003466;28;20736;-76
2023/09/08 12:55:12;;;;;;;11.18;10.27;;;;;;;;;;5003559;28;20034;-76
2023/09/08 12:57:37;;;;;;;11.15;10.15;;;;;;;;;;5001784;28;20034;-76
2023/09/08 13:00:05;;;;;;;11.65;10.52;;;;;;;;;;5002857;28;20038;-77
2023/09/08 13:02:32;;;;;;;11.15;10.35;;;;;;;;;;5000234;28;20095;-77
2023/09/08 13:04:57;;;;;;;11.57;10.48;;;;;;;;;;5000868;28;20500;-76
2023/09/08 13:07:23;;;;;;;11.48;10.38;;;;;;;;;;5003606;28;20638;-76
2023/09/08 13:09:50;;;;;;;11.35;10.50;;;;;;;;;;5000245;28;21016;-77
2023/09/08 13:12:16;;;;;;;11.50;10.60;;;;;;;;;;4998024;28;20026;-76
2023/09/08 13:14:43;;;;;;;11.35;10.35;;;;;;;;;;5000342;28;20042;-77
2023/09/08 13:17:10;;;;;;;11.50;10.60;;;;;;;;;;5001979;28;20112;-76
2023/09/08 13:19:37;;;;;;;10.88;9.90;;;;;;;;;;5002017;28;20111;-76
2023/09/08 13:22:06;;;;;;;11.75;10.85;;;;;;;;;;4997856;28;20034;-76
2023/09/08 13:24:33;;;;;;;11.60;10.60;;;;;;;;;;5001661;28;20125;-77
2023/09/08 13:27:00;;;;;;;11.45;10.52;;;;;;;;;;5000847;28;20490;-76
2023/09/08 13:29:27;;;;;;;11.93;10.93;;;;;;;;;;5000721;28;20699;-77
2023/09/08 13:31:52;;;;;;;11.38;10.48;;;;;;;;;;4996309;28;20565;-76
2023/09/08 13:34:18;;;;;;;11.57;10.68;;;;;;;;;;4999530;28;20111;-76
2023/09/08 13:36:44;;;;;;;12.25;10.82;;;;;;;;;;5002601;28;20517;-76
2023/09/08 13:39:09;;;;;;;11.68;10.57;;;;;;;;;;5006226;28;20034;-76
2023/09/08 13:41:50;;;;;;;12.20;11.10;;;;;;;;;;5002037;28;20037;-76
2023/09/08 13:44:21;;;;;;;12.25;11.23;;;;;;;;;;5002242;28;20767;-76
2023/09/08 13:46:48;;;;;;;12.45;11.13;;;;;;;;;;4998017;28;20038;-76
2023/09/08 13:49:14;;;;;;;12.68;10.82;;;;;;;;;;5001131;28;20405;-76
2023/09/08 13:51:39;;;;;;;12.32;11.18;;;;;;;;;;5001058;28;20041;-76
2023/09/08 13:54:06;;;;;;;12.38;10.82;;;;;;;;;;5000327;28;20034;-76
2023/09/08 13:56:31;;;;;;;12.52;11.30;;;;;;;;;;5000538;28;20557;-77
2023/09/08 13:58:57;;;;;;;12.68;11.57;;;;;;;;;;4994186;28;20041;-76
2023/09/08 14:01:22;;;;;;;12.10;10.90;;;;;;;;;;4997237;28;20136;-76
2023/09/08 14:03:51;;;;;;;12.68;11.40;;;;;;;;;;4997372;28;20045;-77
2023/09/08 14:06:18;;;;;;;12.80;10.82;;;;;;;;;;5000723;28;20034;-76
2023/09/08 14:08:44;;;;;;;11.80;10.90;;;;;;;;;;4999156;28;20056;-76
2023/09/08 14:11:12;;;;;;;11.75;10.65;;;;;;;;;;5004080;28;20033;-76
2023/09/08 14:13:37;;;;;;;12.75;11.55;;;;;;;;;;5018170;28;20038;-77
2023/09/08 14:16:03;;;;;;;12.02;10.90;;;;;;;;;;5001556;28;20405;-76
2023/09/08 14:18:30;;;;;;;12.27;11.35;;;;;;;;;;5003142;28;20045;-76
2023/09/08 14:20:55;;;;;;;11.90;10.82;;;;;;;;;;5001464;28;20045;-76